Weather at Podpeč Airfield

Public forecast

Using degrees Celsius for public forecast. Weather courtesy of forecast.io.

Closest aviation weather report (METAR) to Podpeč Airfield

Closest report is Ljubljana Jože Pučnik Airport, 15.1 nm (28.0 km) N.

2024/05/30 05:30 (retrieved 35 minutes ago)

LJLJ 300530Z 30003KT 250V350 9999 FEW003 SCT250 14/12 Q1009 NOSIG

Closest aviation forecast (TAF) to Podpeč Airfield

Closest forecast is Ljubljana Jože Pučnik Airport, 15.1 nm (28.0 km) N.

2024/05/30 06:06 (retrieved 0 seconds ago)

TAF LJLJ 300500Z 3006/3106 30002KT 9999 FEW050 TEMPO 3010/3106 SHRA SCT035TCU BKN045 PROB30 TEMPO 3010/3106 5000 TSRA SCT035CB BKN045